Terminal Aerodrome Forecast
Issued by NWS Wilmington, NC

Current Version | Previous Version | Graphics & Text | Print | Product List | Glossary Off
Versions: 1 2 3 4 5 6 7 8 9 10 11 12 13

000
FTUS42 KILM 240523
TAFFLO
TAF
KFLO 240523Z 2406/2506 03003KT P6SM SKC
     FM240900 00000KT 4SM BR SKC
      TEMPO 2410/2413 1/2SM FG
     FM241400 11003KT P6SM SCT050
     FM242100 14006KT P6SM FEW250
     FM250000 VRB04KT P6SM SKC=

USA.gov is the U.S. government's official web portal to all federal, state and local government web resources and services.